createdAt,value
2017-03-14T00:00:02.387Z,1.70
2017-03-14T00:01:05.682Z,1.80
2017-03-14T00:02:09.110Z,1.70
2017-03-14T00:03:12.376Z,1.70
2017-03-14T00:04:15.669Z,1.80
2017-03-14T00:05:19.067Z,1.70
2017-03-14T00:06:21.589Z,1.70
2017-03-14T00:07:27.806Z,1.70
2017-03-14T00:08:31.090Z,1.60
2017-03-14T00:09:34.354Z,1.60
2017-03-14T00:10:37.619Z,1.60
2017-03-14T00:11:40.995Z,1.60
2017-03-14T00:12:43.474Z,1.50
2017-03-14T00:13:47.534Z,1.50
2017-03-14T00:14:50.857Z,1.50
2017-03-14T00:15:54.249Z,1.50
2017-03-14T00:16:56.777Z,1.50
2017-03-14T00:17:59.889Z,1.60
2017-03-14T00:19:03.269Z,1.50
2017-03-14T00:20:06.489Z,1.60
2017-03-14T00:21:08.961Z,1.50
2017-03-14T00:22:12.101Z,1.50
2017-03-14T00:23:14.609Z,1.50
2017-03-14T00:24:16.965Z,1.50
2017-03-14T00:25:20.862Z,1.50
2017-03-14T00:26:23.394Z,1.40
2017-03-14T00:27:26.561Z,1.50
2017-03-14T00:28:29.010Z,1.40
2017-03-14T00:29:32.190Z,1.40
2017-03-14T00:30:34.791Z,1.40
2017-03-14T00:31:38.073Z,1.50
2017-03-14T00:32:41.397Z,1.40
2017-03-14T00:33:44.645Z,1.40
2017-03-14T00:34:47.970Z,1.50
2017-03-14T00:35:50.616Z,1.40
2017-03-14T00:36:54.598Z,1.50
2017-03-14T00:37:57.097Z,1.50
2017-03-14T00:39:00.348Z,1.50
2017-03-14T00:40:03.470Z,1.60
2017-03-14T00:41:06.835Z,1.60
2017-03-14T00:42:09.382Z,1.50
2017-03-14T00:43:13.378Z,1.70
2017-03-14T00:44:16.669Z,1.70
2017-03-14T00:45:19.265Z,1.60
2017-03-14T00:46:23.339Z,1.70
2017-03-14T00:47:25.791Z,1.60
2017-03-14T00:48:29.115Z,1.70
2017-03-14T00:49:32.430Z,1.70
2017-03-14T00:50:37.429Z,1.60
2017-03-14T00:51:40.665Z,1.70
2017-03-14T00:52:43.145Z,1.60
2017-03-14T00:53:46.344Z,1.60
2017-03-14T00:54:49.490Z,1.70
2017-03-14T00:55:52.717Z,1.60
2017-03-14T00:56:56.671Z,1.60
2017-03-14T00:57:59.965Z,1.60
2017-03-14T00:59:03.357Z,1.60
2017-03-14T01:00:06.733Z,1.60
2017-03-14T01:01:10.086Z,1.60
2017-03-14T01:02:13.302Z,1.60
2017-03-14T01:03:16.570Z,1.50
2017-03-14T01:04:19.970Z,1.50
2017-03-14T01:05:22.550Z,1.50
2017-03-14T01:06:25.001Z,1.50
2017-03-14T01:07:28.909Z,1.50
2017-03-14T01:08:31.514Z,1.50
2017-03-14T01:09:35.574Z,1.50
2017-03-14T01:10:38.129Z,1.50
2017-03-14T01:11:40.479Z,1.60
2017-03-14T01:12:43.588Z,1.50
2017-03-14T01:13:47.577Z,1.50
2017-03-14T01:14:50.972Z,1.40
2017-03-14T01:15:54.349Z,1.40
2017-03-14T01:16:57.670Z,1.40
2017-03-14T01:18:00.125Z,1.30
2017-03-14T01:19:04.208Z,1.40
2017-03-14T01:20:06.637Z,1.30
2017-03-14T01:21:09.033Z,1.40
2017-03-14T01:22:12.240Z,1.40
2017-03-14T01:23:16.221Z,1.30
2017-03-14T01:24:19.570Z,1.30
2017-03-14T01:25:23.083Z,1.30
2017-03-14T01:26:26.380Z,1.30
2017-03-14T01:27:29.030Z,1.20
2017-03-14T01:28:32.257Z,1.20
2017-03-14T01:29:35.507Z,1.20
2017-03-14T01:30:37.850Z,1.20
2017-03-14T01:31:40.218Z,1.20
2017-03-14T01:32:44.261Z,1.10
2017-03-14T01:33:46.886Z,1.10
2017-03-14T01:34:50.162Z,1.10
2017-03-14T01:35:54.166Z,1.10
2017-03-14T01:36:57.560Z,1.10
2017-03-14T01:38:00.239Z,1.00
2017-03-14T01:39:03.496Z,1.10
2017-03-14T01:40:06.642Z,1.00
2017-03-14T01:41:09.701Z,1.00
2017-03-14T01:42:13.048Z,1.00
2017-03-14T01:43:16.288Z,1.00
2017-03-14T01:44:19.639Z,1.00
2017-03-14T01:45:22.073Z,0.90
2017-03-14T01:46:26.109Z,1.00
2017-03-14T01:47:29.386Z,1.00
2017-03-14T01:48:31.997Z,0.90
2017-03-14T01:49:35.975Z,1.00
2017-03-14T01:50:38.453Z,0.90
2017-03-14T01:51:41.672Z,1.00
2017-03-14T01:52:44.942Z,1.00
2017-03-14T01:53:48.057Z,1.00
2017-03-14T01:54:50.564Z,0.90
2017-03-14T01:55:53.734Z,0.90
2017-03-14T01:56:56.945Z,1.00
2017-03-14T01:58:00.142Z,0.90
2017-03-14T01:59:04.197Z,0.90
2017-03-14T02:00:07.381Z,1.00
2017-03-14T02:01:09.811Z,0.90
2017-03-14T02:02:12.967Z,0.90
2017-03-14T02:03:16.191Z,0.90
2017-03-14T02:04:19.598Z,0.90
2017-03-14T02:05:22.070Z,0.90
2017-03-14T02:06:26.129Z,0.90
2017-03-14T02:07:28.639Z,0.90
2017-03-14T02:08:31.873Z,0.90
2017-03-14T02:09:34.361Z,0.80
2017-03-14T02:10:37.549Z,0.90
2017-03-14T02:11:40.642Z,0.90
2017-03-14T02:12:43.882Z,0.90
2017-03-14T02:13:46.330Z,0.80
2017-03-14T02:14:49.481Z,0.80
2017-03-14T02:15:53.540Z,0.80
2017-03-14T02:16:56.916Z,0.80
2017-03-14T02:17:59.366Z,0.70
2017-03-14T02:19:02.542Z,0.70
2017-03-14T02:20:06.690Z,0.80
2017-03-14T02:21:09.874Z,0.80
2017-03-14T02:22:13.122Z,0.80
2017-03-14T02:23:15.673Z,0.70
2017-03-14T02:24:19.709Z,0.80
2017-03-14T02:25:22.321Z,0.70
2017-03-14T02:26:25.539Z,0.80
2017-03-14T02:27:27.850Z,0.80
2017-03-14T02:28:30.994Z,0.80
2017-03-14T02:29:33.420Z,0.70
2017-03-14T02:30:36.791Z,0.70
2017-03-14T02:31:40.833Z,0.70
2017-03-14T02:32:44.126Z,0.70
2017-03-14T02:33:46.686Z,0.70
2017-03-14T02:34:49.765Z,0.80
2017-03-14T02:35:53.136Z,0.80
2017-03-14T02:36:56.438Z,0.80
2017-03-14T02:37:59.835Z,0.80
2017-03-14T02:39:02.362Z,0.70
2017-03-14T02:40:05.484Z,0.70
2017-03-14T02:41:08.836Z,0.70
2017-03-14T02:42:12.137Z,0.70
2017-03-14T02:43:14.752Z,0.70
2017-03-14T02:44:18.810Z,0.80
2017-03-14T02:45:21.289Z,0.70
2017-03-14T02:46:25.337Z,0.80
2017-03-14T02:47:28.549Z,0.80
2017-03-14T02:48:31.942Z,0.70
2017-03-14T02:49:35.235Z,0.80
2017-03-14T02:50:38.609Z,0.70
2017-03-14T02:51:43.187Z,0.70
2017-03-14T02:52:46.406Z,0.70
2017-03-14T02:53:49.792Z,0.70
2017-03-14T02:54:52.373Z,0.60
2017-03-14T02:55:56.461Z,0.70
2017-03-14T02:56:59.799Z,0.70
2017-03-14T02:58:03.103Z,0.70
2017-03-14T02:59:06.531Z,0.70
2017-03-14T03:00:09.054Z,0.60
2017-03-14T03:01:13.093Z,0.70
2017-03-14T03:02:16.514Z,0.70
2017-03-14T03:03:19.020Z,0.60
2017-03-14T03:04:22.297Z,0.60
2017-03-14T03:05:26.327Z,0.70
2017-03-14T03:06:28.885Z,0.60
2017-03-14T03:07:31.269Z,0.70
2017-03-14T03:08:35.365Z,0.70
2017-03-14T03:09:38.706Z,0.70
2017-03-14T03:10:42.133Z,0.70
2017-03-14T03:11:44.766Z,0.60
2017-03-14T03:12:48.133Z,0.60
2017-03-14T03:13:51.221Z,0.60
2017-03-14T03:14:53.796Z,0.60
2017-03-14T03:15:57.738Z,0.60
2017-03-14T03:17:00.291Z,0.60
2017-03-14T03:18:04.339Z,0.60
2017-03-14T03:19:07.574Z,0.60
2017-03-14T03:20:10.970Z,0.60
2017-03-14T03:21:13.497Z,0.60
2017-03-14T03:22:15.871Z,0.60
2017-03-14T03:23:19.257Z,0.60
2017-03-14T03:24:22.538Z,0.60
2017-03-14T03:25:25.682Z,0.60
2017-03-14T03:26:28.878Z,0.70
2017-03-14T03:27:32.278Z,0.60
2017-03-14T03:28:36.353Z,0.60
2017-03-14T03:29:38.818Z,0.60
2017-03-14T03:30:42.873Z,0.70
2017-03-14T03:31:46.326Z,0.60
2017-03-14T03:32:49.645Z,0.60
2017-03-14T03:33:53.007Z,0.60
2017-03-14T03:34:56.418Z,0.60
2017-03-14T03:35:59.013Z,0.50
2017-03-14T03:37:01.389Z,0.60
2017-03-14T03:38:05.376Z,0.70
2017-03-14T03:39:07.911Z,0.70
2017-03-14T03:40:11.078Z,0.70
2017-03-14T03:41:15.089Z,0.70
2017-03-14T03:42:18.484Z,0.70
2017-03-14T03:43:21.162Z,0.70
2017-03-14T03:44:24.445Z,0.70
2017-03-14T03:45:27.722Z,0.70
2017-03-14T03:46:30.150Z,0.70
2017-03-14T03:47:33.530Z,0.80
2017-03-14T03:48:36.841Z,0.80
2017-03-14T03:49:41.065Z,0.70
2017-03-14T03:50:44.282Z,0.70
2017-03-14T03:51:46.880Z,0.70
2017-03-14T03:52:50.130Z,0.70
2017-03-14T03:53:54.117Z,0.70
2017-03-14T03:54:56.713Z,0.70
2017-03-14T03:56:00.760Z,0.80
2017-03-14T03:57:03.383Z,0.70
2017-03-14T03:58:05.930Z,0.80
2017-03-14T03:59:09.178Z,0.80
2017-03-14T04:00:13.224Z,0.80
2017-03-14T04:01:15.697Z,0.70
2017-03-14T04:02:18.930Z,0.80
2017-03-14T04:03:21.399Z,0.70
2017-03-14T04:04:24.634Z,0.70
2017-03-14T04:05:27.109Z,0.70
2017-03-14T04:06:31.142Z,0.70
2017-03-14T04:07:33.749Z,0.70
2017-03-14T04:08:37.050Z,0.70
2017-03-14T04:09:41.137Z,0.70
2017-03-14T04:10:44.537Z,0.70
2017-03-14T04:11:47.869Z,0.70
2017-03-14T04:12:51.089Z,0.70
2017-03-14T04:13:53.570Z,0.60
2017-03-14T04:14:56.037Z,0.70
2017-03-14T04:16:00.085Z,0.70
2017-03-14T04:17:03.303Z,0.70
2017-03-14T04:18:06.634Z,0.70
2017-03-14T04:19:09.374Z,0.60
2017-03-14T04:20:12.538Z,0.70
2017-03-14T04:21:17.150Z,0.60
2017-03-14T04:22:19.561Z,0.60
2017-03-14T04:23:22.739Z,0.60
2017-03-14T04:24:26.621Z,0.70
2017-03-14T04:25:29.133Z,0.60
2017-03-14T04:26:33.154Z,0.70
2017-03-14T04:27:35.637Z,0.60
2017-03-14T04:28:39.682Z,0.80
2017-03-14T04:29:42.978Z,0.70
2017-03-14T04:30:45.601Z,0.70
2017-03-14T04:31:48.872Z,0.80
2017-03-14T04:32:51.477Z,0.80
2017-03-14T04:33:54.642Z,0.80
2017-03-14T04:34:58.689Z,0.80
2017-03-14T04:36:01.265Z,0.70
2017-03-14T04:37:03.614Z,0.80
2017-03-14T04:38:06.957Z,0.80
2017-03-14T04:39:10.065Z,0.80
2017-03-14T04:40:13.394Z,0.80
2017-03-14T04:41:15.814Z,0.70
2017-03-14T04:42:18.257Z,0.80
2017-03-14T04:43:22.173Z,0.70
2017-03-14T04:44:24.706Z,0.70
2017-03-14T04:45:27.826Z,0.70
2017-03-14T04:46:30.317Z,0.60
2017-03-14T04:47:33.413Z,0.70
2017-03-14T04:48:36.857Z,0.70
2017-03-14T04:49:39.385Z,0.60
2017-03-14T04:50:42.498Z,0.70
2017-03-14T04:51:45.794Z,0.60
2017-03-14T04:52:49.161Z,0.60
2017-03-14T04:53:51.789Z,0.60
2017-03-14T04:54:55.869Z,0.60
2017-03-14T04:55:59.144Z,0.60
2017-03-14T04:57:02.405Z,0.60
2017-03-14T04:58:05.035Z,0.60
2017-03-14T04:59:08.281Z,0.60
2017-03-14T05:00:10.666Z,0.60
2017-03-14T05:01:13.806Z,0.60
2017-03-14T05:02:17.109Z,0.70
2017-03-14T05:03:20.520Z,0.70
2017-03-14T05:04:22.959Z,0.60
2017-03-14T05:05:25.269Z,0.70
2017-03-14T05:06:29.290Z,0.70
2017-03-14T05:07:31.841Z,0.60
2017-03-14T05:08:35.905Z,0.70
2017-03-14T05:09:38.429Z,0.60
2017-03-14T05:10:41.711Z,0.70
2017-03-14T05:11:45.621Z,0.60
2017-03-14T05:12:48.224Z,0.60
2017-03-14T05:13:52.333Z,0.60
2017-03-14T05:14:54.886Z,0.50
2017-03-14T05:15:58.849Z,0.60
2017-03-14T05:17:01.281Z,0.60
2017-03-14T05:18:05.319Z,0.60
2017-03-14T05:19:08.655Z,0.60
2017-03-14T05:20:11.862Z,0.60
2017-03-14T05:21:14.320Z,0.50
2017-03-14T05:22:18.322Z,0.60
2017-03-14T05:23:20.905Z,0.60
2017-03-14T05:24:24.029Z,0.70
2017-03-14T05:25:26.601Z,0.70
2017-03-14T05:26:29.869Z,0.70
2017-03-14T05:27:33.958Z,0.70
2017-03-14T05:28:36.485Z,0.70
2017-03-14T05:29:40.555Z,0.70
2017-03-14T05:30:43.799Z,0.70
2017-03-14T05:31:46.345Z,0.70
2017-03-14T05:32:48.717Z,0.70
2017-03-14T05:33:52.729Z,0.70
2017-03-14T05:34:55.213Z,0.70
2017-03-14T05:35:57.533Z,0.70
2017-03-14T05:37:01.584Z,0.80
2017-03-14T05:38:04.840Z,0.80
2017-03-14T05:39:07.297Z,0.70
2017-03-14T05:40:11.444Z,0.80
2017-03-14T05:41:13.956Z,0.80
2017-03-14T05:42:17.204Z,0.80
2017-03-14T05:43:20.399Z,0.80
2017-03-14T05:44:23.673Z,0.80
2017-03-14T05:45:27.754Z,0.90
2017-03-14T05:46:30.165Z,0.80
2017-03-14T05:47:33.440Z,0.90
2017-03-14T05:48:36.702Z,0.90
2017-03-14T05:49:39.913Z,0.90
2017-03-14T05:50:43.254Z,0.90
2017-03-14T05:51:46.489Z,1.00
2017-03-14T05:52:49.886Z,1.00
2017-03-14T05:53:52.564Z,0.90
2017-03-14T05:54:54.885Z,1.00
2017-03-14T05:55:58.323Z,1.10
2017-03-14T05:57:01.506Z,1.10
2017-03-14T05:58:04.661Z,1.20
2017-03-14T05:59:07.937Z,1.20
2017-03-14T06:00:11.229Z,1.20
2017-03-14T06:01:13.849Z,1.20
2017-03-14T06:02:16.927Z,1.30
2017-03-14T06:03:20.981Z,1.30
2017-03-14T06:04:24.637Z,1.30
2017-03-14T06:05:27.191Z,1.30
2017-03-14T06:06:30.419Z,1.40
2017-03-14T06:07:33.699Z,1.40
2017-03-14T06:08:36.308Z,1.40
2017-03-14T06:09:39.451Z,1.40
2017-03-14T06:10:42.546Z,1.50
2017-03-14T06:11:45.209Z,1.40
2017-03-14T06:12:48.382Z,1.60
2017-03-14T06:13:51.677Z,1.60
2017-03-14T06:14:54.301Z,1.50
2017-03-14T06:15:57.423Z,1.70
2017-03-14T06:17:00.033Z,1.60
2017-03-14T06:18:03.077Z,1.70
2017-03-14T06:19:05.489Z,1.70
2017-03-14T06:20:08.833Z,1.80
2017-03-14T06:21:11.983Z,1.80
2017-03-14T06:22:17.157Z,1.90
2017-03-14T06:23:19.619Z,1.80
2017-03-14T06:24:22.860Z,1.90
2017-03-14T06:25:25.317Z,1.90
2017-03-14T06:26:28.533Z,1.90
2017-03-14T06:27:31.654Z,2.00
2017-03-14T06:28:35.068Z,2.10
2017-03-14T06:29:38.466Z,2.10
2017-03-14T06:30:41.845Z,2.10
2017-03-14T06:31:44.299Z,2.00
2017-03-14T06:32:47.581Z,2.10
2017-03-14T06:33:51.598Z,2.30
2017-03-14T06:34:54.281Z,2.20
2017-03-14T06:35:57.341Z,2.30
2017-03-14T06:37:00.741Z,2.40
2017-03-14T06:38:03.327Z,2.40
2017-03-14T06:39:06.405Z,2.50
2017-03-14T06:40:09.650Z,2.40
2017-03-14T06:41:13.045Z,2.40
2017-03-14T06:42:15.601Z,2.30
2017-03-14T06:43:19.653Z,2.40
2017-03-14T06:44:22.073Z,2.40
2017-03-14T06:45:25.161Z,2.60
2017-03-14T06:46:28.433Z,2.60
2017-03-14T06:47:31.622Z,2.70
2017-03-14T06:48:34.210Z,2.60
2017-03-14T06:49:38.294Z,2.80
2017-03-14T06:50:40.794Z,2.80
2017-03-14T06:51:43.940Z,2.90
2017-03-14T06:52:47.233Z,2.90
2017-03-14T06:53:50.740Z,2.80
2017-03-14T06:54:53.277Z,2.70
2017-03-14T06:55:57.361Z,3.00
2017-03-14T06:57:00.765Z,3.10
2017-03-14T06:58:03.337Z,3.10
2017-03-14T06:59:06.638Z,3.20
2017-03-14T07:00:10.602Z,3.40
2017-03-14T07:01:13.897Z,3.50
2017-03-14T07:02:17.289Z,3.60
2017-03-14T07:03:20.765Z,3.70
2017-03-14T07:04:24.068Z,3.80
2017-03-14T07:05:26.545Z,3.80
2017-03-14T07:06:29.834Z,3.90
2017-03-14T07:07:33.797Z,4.00
2017-03-14T07:08:36.361Z,4.00
2017-03-14T07:09:40.401Z,4.20
2017-03-14T07:10:42.917Z,4.10
2017-03-14T07:11:46.089Z,4.30
2017-03-14T07:12:50.125Z,4.50
2017-03-14T07:13:53.496Z,4.50
2017-03-14T07:14:56.122Z,4.50
2017-03-14T07:16:00.065Z,4.80
2017-03-14T07:17:02.519Z,4.80
2017-03-14T07:18:06.638Z,4.80
2017-03-14T07:19:10.026Z,4.90
2017-03-14T07:20:14.538Z,4.90
2017-03-14T07:21:17.831Z,4.90
2017-03-14T07:22:21.229Z,4.90
2017-03-14T07:23:23.921Z,4.80
2017-03-14T07:24:26.245Z,5.00
2017-03-14T07:25:28.669Z,5.10
2017-03-14T07:26:31.966Z,5.10
2017-03-14T07:27:35.998Z,5.20
2017-03-14T07:28:38.426Z,5.10
2017-03-14T07:29:40.802Z,5.30
2017-03-14T07:30:43.207Z,5.30
2017-03-14T07:31:46.445Z,5.40
2017-03-14T07:32:50.486Z,5.60
2017-03-14T07:33:53.858Z,5.70
2017-03-14T07:34:56.359Z,5.60
2017-03-14T07:35:59.693Z,5.70
2017-03-14T07:37:02.853Z,5.80
2017-03-14T07:38:06.046Z,5.90
2017-03-14T07:39:10.058Z,6.10
2017-03-14T07:40:13.449Z,6.20
2017-03-14T07:41:15.947Z,6.10
2017-03-14T07:42:19.918Z,6.20
2017-03-14T07:43:23.115Z,6.70
2017-03-14T07:44:25.669Z,6.60
2017-03-14T07:45:29.653Z,7.30
2017-03-14T07:46:33.074Z,7.90
2017-03-14T07:47:35.486Z,7.80
2017-03-14T07:48:39.520Z,9.60
2017-03-14T07:49:41.969Z,9.50
2017-03-14T07:50:45.174Z,10.00
2017-03-14T07:51:48.378Z,10.60
2017-03-14T07:52:51.643Z,11.00
2017-03-14T07:53:55.577Z,11.30
2017-03-14T07:54:58.240Z,11.20
2017-03-14T07:56:01.398Z,13.10
2017-03-14T07:57:04.664Z,12.00
2017-03-14T07:58:07.221Z,12.00
2017-03-14T07:59:10.644Z,13.50
2017-03-14T08:00:14.705Z,15.00
2017-03-14T08:01:17.157Z,14.90
2017-03-14T08:02:21.306Z,16.40
2017-03-14T08:03:23.750Z,16.30
2017-03-14T08:04:26.942Z,16.70
2017-03-14T08:05:29.495Z,16.70
2017-03-14T08:06:32.773Z,17.10
2017-03-14T08:07:35.311Z,17.00
2017-03-14T08:08:39.302Z,17.70
2017-03-14T08:09:42.678Z,17.50
2017-03-14T08:10:45.125Z,17.50
2017-03-14T08:11:47.437Z,18.40
2017-03-14T08:12:49.833Z,18.90
2017-03-14T08:13:53.113Z,19.70
2017-03-14T08:14:56.401Z,20.00
2017-03-14T08:15:59.557Z,20.90
2017-03-14T08:17:02.222Z,20.80
2017-03-14T08:18:05.601Z,21.70
2017-03-14T08:19:09.506Z,22.40
2017-03-14T08:20:12.059Z,22.40
2017-03-14T08:21:16.072Z,23.30
2017-03-14T08:22:19.388Z,23.50
2017-03-14T08:23:22.034Z,23.40
2017-03-14T08:24:25.908Z,24.00
2017-03-14T08:25:29.305Z,22.40
2017-03-14T08:26:32.712Z,23.70
2017-03-14T08:27:36.093Z,25.00
2017-03-14T09:12:23.285Z,22.50
2017-03-14T09:14:14.501Z,22.70
2017-03-14T09:15:18.418Z,21.90
2017-03-14T09:16:20.923Z,21.80
2017-03-14T09:17:23.215Z,21.30
2017-03-14T09:18:26.299Z,20.50
2017-03-14T10:36:18.088Z,15.90
2017-03-14T10:38:21.693Z,13.70
2017-03-14T10:39:28.212Z,12.80
2017-03-14T10:40:33.211Z,12.70
2017-03-14T10:41:39.404Z,12.00
2017-03-14T10:42:44.427Z,11.90
2017-03-14T10:43:49.856Z,11.70
2017-03-14T10:44:55.784Z,11.50
2017-03-14T10:46:02.036Z,11.50
2017-03-14T10:47:07.216Z,11.40
2017-03-14T10:48:12.800Z,11.30
2017-03-14T10:49:17.458Z,11.20
2017-03-14T10:50:23.957Z,11.10
2017-03-14T10:51:28.749Z,11.10
2017-03-14T10:52:33.429Z,11.10
2017-03-14T10:53:38.993Z,11.10
2017-03-14T10:54:44.558Z,11.20
2017-03-14T10:55:49.504Z,11.10
2017-03-14T10:56:55.201Z,11.10
2017-03-14T10:57:59.942Z,11.10
2017-03-14T10:59:05.565Z,11.10
2017-03-14T11:00:11.636Z,11.20
2017-03-14T11:01:17.753Z,11.10
2017-03-14T11:02:22.529Z,11.10
2017-03-14T11:03:28.784Z,11.30
2017-03-14T11:04:34.444Z,11.30
2017-03-14T11:05:39.397Z,11.20
2017-03-14T11:06:44.181Z,11.50
2017-03-14T11:07:50.651Z,11.30
2017-03-14T11:08:56.356Z,11.40
2017-03-14T11:10:01.330Z,11.30
2017-03-14T11:11:06.265Z,11.40
2017-03-14T11:12:11.009Z,11.50
2017-03-14T11:13:18.773Z,11.20
2017-03-14T11:14:24.190Z,11.20
2017-03-14T11:15:29.592Z,11.40
2017-03-14T11:16:35.105Z,11.50
2017-03-14T11:17:40.837Z,11.40
2017-03-14T11:18:45.591Z,11.30
2017-03-14T11:19:51.809Z,11.30
2017-03-14T11:20:57.492Z,11.30
2017-03-14T11:22:03.232Z,11.40
2017-03-14T11:23:08.889Z,11.40
2017-03-14T11:24:13.759Z,11.40
2017-03-14T11:25:18.581Z,11.50
2017-03-14T11:26:24.172Z,11.40
2017-03-14T11:27:29.693Z,11.50
2017-03-14T11:28:34.596Z,11.40
2017-03-14T11:29:39.420Z,11.50
2017-03-14T11:30:44.852Z,11.60
2017-03-14T11:31:50.392Z,11.60
2017-03-14T11:32:55.129Z,11.60
2017-03-14T11:34:00.585Z,11.60
2017-03-14T11:35:05.483Z,11.50
2017-03-14T11:36:11.022Z,11.60
2017-03-14T11:37:16.548Z,11.50
2017-03-14T11:38:21.524Z,11.50
2017-03-14T11:39:27.089Z,11.60
2017-03-14T11:40:31.784Z,11.70
2017-03-14T11:41:38.004Z,11.60
2017-03-14T11:42:42.860Z,11.50
2017-03-14T11:43:48.304Z,11.70
2017-03-14T11:44:53.161Z,11.60
2017-03-14T11:45:57.888Z,11.70
2017-03-14T11:47:04.252Z,11.80
2017-03-14T11:48:09.856Z,11.80
2017-03-14T11:49:14.677Z,11.80
2017-03-14T11:50:20.099Z,11.80
2017-03-14T11:51:25.920Z,11.70
2017-03-14T11:52:31.352Z,11.70
2017-03-14T11:53:37.226Z,12.00
2017-03-14T11:54:42.869Z,12.00
2017-03-14T11:55:47.672Z,11.90
2017-03-14T11:56:52.461Z,11.90
2017-03-14T11:57:57.962Z,11.90
2017-03-14T11:59:02.704Z,11.80
2017-03-14T12:00:08.297Z,12.00
2017-03-14T12:01:13.144Z,11.90
2017-03-14T12:02:18.724Z,12.00
2017-03-14T12:03:23.465Z,12.00
2017-03-14T12:04:29.016Z,12.20
2017-03-14T12:05:35.272Z,12.10
2017-03-14T12:06:43.660Z,12.10
2017-03-14T12:07:49.118Z,12.00
2017-03-14T12:08:54.744Z,12.20
2017-03-14T12:09:59.541Z,12.20
2017-03-14T12:11:05.829Z,12.20
2017-03-14T12:12:10.646Z,12.10
2017-03-14T12:13:15.361Z,12.20
2017-03-14T12:14:20.836Z,12.20
2017-03-14T12:15:25.616Z,12.20
2017-03-14T12:16:31.124Z,12.20
2017-03-14T12:17:37.563Z,12.10
2017-03-14T12:18:42.803Z,12.10
2017-03-14T12:19:49.184Z,12.10
2017-03-14T12:20:54.716Z,12.30
2017-03-14T12:22:00.272Z,12.30
2017-03-14T12:23:05.897Z,12.30
2017-03-14T12:24:10.684Z,12.30
2017-03-14T12:25:15.453Z,12.40
2017-03-14T12:26:20.912Z,12.30
2017-03-14T12:27:26.494Z,12.40
2017-03-14T12:28:32.123Z,12.40
2017-03-14T12:29:37.684Z,12.40
2017-03-14T12:30:43.104Z,12.50
2017-03-14T12:31:48.744Z,12.50
2017-03-14T12:32:54.386Z,12.60
2017-03-14T12:34:00.056Z,12.50
2017-03-14T12:35:05.714Z,12.50
2017-03-14T12:36:11.229Z,12.50
2017-03-14T12:37:15.958Z,12.40
2017-03-14T12:38:20.613Z,12.40
2017-03-14T12:39:25.317Z,12.50
2017-03-14T12:40:30.904Z,12.50
2017-03-14T12:41:35.645Z,12.50
2017-03-14T12:42:40.239Z,12.60
2017-03-14T12:43:46.684Z,12.60
2017-03-14T12:44:52.252Z,12.50
2017-03-14T12:45:57.140Z,12.40
2017-03-14T12:47:02.837Z,12.50
2017-03-14T12:48:09.104Z,12.60
2017-03-14T12:49:14.885Z,12.60
2017-03-14T12:50:20.597Z,12.60
2017-03-14T12:51:25.382Z,12.60
2017-03-14T12:52:30.917Z,12.60
2017-03-14T12:53:36.820Z,12.60
2017-03-14T12:54:41.581Z,12.60
2017-03-14T12:55:46.532Z,12.70
2017-03-14T12:56:51.289Z,12.80
2017-03-14T12:57:57.637Z,12.80
2017-03-14T12:59:03.216Z,12.80
2017-03-14T13:00:08.040Z,12.70
2017-03-14T13:01:12.676Z,12.80
2017-03-14T13:02:18.463Z,12.90
2017-03-14T13:03:23.088Z,12.90
2017-03-14T13:04:27.840Z,12.90
2017-03-14T13:05:33.407Z,13.00
2017-03-14T13:06:39.213Z,13.00
2017-03-14T13:07:44.767Z,13.00
2017-03-14T13:08:50.485Z,13.00
2017-03-14T13:09:55.142Z,13.00
2017-03-14T13:11:00.689Z,13.10
2017-03-14T13:12:06.223Z,13.10
2017-03-14T13:13:11.939Z,13.10
2017-03-14T13:14:17.393Z,13.20
2017-03-14T13:15:22.940Z,13.10
2017-03-14T13:16:28.680Z,13.20
2017-03-14T13:17:34.457Z,13.20
2017-03-14T13:18:39.376Z,13.10
2017-03-14T13:19:44.956Z,13.30
2017-03-14T13:20:50.696Z,13.30
2017-03-14T13:21:56.225Z,13.30
2017-03-14T13:23:01.725Z,13.40
2017-03-14T13:24:07.513Z,13.30
2017-03-14T13:25:13.090Z,13.30
2017-03-14T13:26:17.852Z,13.30
2017-03-14T13:27:23.424Z,13.30
2017-03-14T13:28:28.876Z,13.40
2017-03-14T13:29:34.444Z,13.40
2017-03-14T13:30:39.184Z,13.40
2017-03-14T13:31:45.493Z,13.50
2017-03-14T13:32:51.004Z,13.50
2017-03-14T13:33:56.668Z,13.70
2017-03-14T13:35:01.525Z,13.60
2017-03-14T13:36:07.010Z,13.60
2017-03-14T13:37:11.840Z,13.50
2017-03-14T13:38:16.512Z,13.70
2017-03-14T13:39:21.368Z,13.70
2017-03-14T13:40:26.133Z,13.70
2017-03-14T13:41:32.537Z,13.70
2017-03-14T13:42:41.417Z,13.70
2017-03-14T13:43:46.184Z,13.60
2017-03-14T13:44:52.523Z,13.70
2017-03-14T13:45:57.388Z,13.70
2017-03-14T13:47:02.768Z,13.80
2017-03-14T13:48:07.676Z,13.70
2017-03-14T13:49:14.049Z,13.80
2017-03-14T13:50:19.589Z,13.90
2017-03-14T13:51:25.278Z,13.80
2017-03-14T13:52:30.033Z,13.90
2017-03-14T13:53:35.480Z,13.90
2017-03-14T13:54:41.049Z,14.00
2017-03-14T13:55:45.919Z,13.90
2017-03-14T13:56:50.856Z,14.00
2017-03-14T13:57:55.612Z,14.10
2017-03-14T13:59:01.161Z,14.20
2017-03-14T14:00:06.639Z,14.20
2017-03-14T14:01:11.540Z,14.20
2017-03-14T14:02:16.329Z,14.30
2017-03-14T14:03:22.654Z,14.60
2017-03-14T14:04:28.396Z,14.70
2017-03-14T14:05:33.216Z,14.60
2017-03-14T14:06:37.929Z,14.70
2017-03-14T14:07:43.429Z,14.90
2017-03-14T14:08:48.217Z,14.80
2017-03-14T14:09:52.871Z,15.00
2017-03-14T14:10:59.345Z,14.90
2017-03-14T14:12:04.213Z,14.90
2017-03-14T14:13:09.791Z,15.10
2017-03-14T14:14:15.228Z,15.20
2017-03-14T14:15:20.008Z,15.10
2017-03-14T14:16:24.944Z,15.20
2017-03-14T14:17:30.444Z,15.30
2017-03-14T14:18:36.071Z,15.30
2017-03-14T14:19:42.329Z,15.20
2017-03-14T14:20:47.920Z,15.10
2017-03-14T14:21:52.672Z,15.00
2017-03-14T14:22:57.320Z,15.10
2017-03-14T14:24:04.665Z,15.20
2017-03-14T14:25:10.196Z,15.10
2017-03-14T14:26:15.081Z,15.00
2017-03-14T14:27:19.848Z,15.00
2017-03-14T14:28:25.453Z,15.10
2017-03-14T14:29:31.077Z,15.30
2017-03-14T14:30:36.512Z,15.40
2017-03-14T14:31:41.276Z,15.40
2017-03-14T14:32:46.781Z,15.50
2017-03-14T14:33:52.320Z,15.60
2017-03-14T14:34:57.812Z,15.70
2017-03-14T14:36:03.293Z,15.70
2017-03-14T14:37:08.955Z,15.60
2017-03-14T14:38:13.688Z,15.60
2017-03-14T14:39:18.460Z,15.50
2017-03-14T14:40:23.969Z,15.40
2017-03-14T14:41:29.658Z,15.50
2017-03-14T14:42:34.549Z,15.40
2017-03-14T14:43:40.917Z,15.50
2017-03-14T14:44:46.483Z,15.30
2017-03-14T14:45:52.215Z,15.40
2017-03-14T14:46:56.972Z,15.40
2017-03-14T14:48:02.572Z,15.50
2017-03-14T14:49:08.200Z,15.60
2017-03-14T14:50:14.053Z,15.80
2017-03-14T14:51:21.680Z,15.80
2017-03-14T14:52:27.289Z,15.90
2017-03-14T14:53:32.164Z,15.90
2017-03-14T14:54:37.656Z,15.80
2017-03-14T14:55:43.584Z,16.00
2017-03-14T14:56:49.576Z,15.90
2017-03-14T14:57:55.180Z,16.00
2017-03-14T14:59:00.025Z,15.90
2017-03-14T15:00:05.618Z,16.00
2017-03-14T15:01:10.580Z,15.90
2017-03-14T15:02:16.188Z,16.00
2017-03-14T15:03:21.621Z,16.00
2017-03-14T15:04:26.429Z,16.00
2017-03-14T15:05:31.264Z,15.90
2017-03-14T15:06:36.868Z,15.90
2017-03-14T15:07:42.365Z,16.00
2017-03-14T15:08:47.165Z,16.00
2017-03-14T15:09:52.684Z,16.00
2017-03-14T15:10:58.222Z,16.10
2017-03-14T15:12:03.857Z,16.10
2017-03-14T15:13:08.764Z,16.00
2017-03-14T15:14:15.128Z,16.00
2017-03-14T15:15:20.679Z,15.90
2017-03-14T15:16:26.334Z,16.00
2017-03-14T15:17:31.103Z,16.00
2017-03-14T15:18:35.853Z,16.20
2017-03-14T15:19:42.293Z,16.20
2017-03-14T15:20:48.824Z,16.30
2017-03-14T15:21:54.074Z,16.20
2017-03-14T15:23:00.429Z,16.00
2017-03-14T15:24:06.029Z,16.00
2017-03-14T15:25:11.537Z,16.20
2017-03-14T15:26:17.189Z,16.30
2017-03-14T15:27:21.965Z,16.20
2017-03-14T15:28:27.569Z,16.30
2017-03-14T15:29:33.217Z,16.00
2017-03-14T15:30:39.629Z,16.00
2017-03-14T15:31:45.244Z,16.00
2017-03-14T15:32:51.108Z,16.10
2017-03-14T15:33:55.893Z,16.00
2017-03-14T15:35:01.480Z,16.10
2017-03-14T15:36:07.124Z,16.10
2017-03-14T15:37:12.778Z,15.90
2017-03-14T15:38:18.601Z,15.90
2017-03-14T15:39:24.328Z,15.90
2017-03-14T15:40:29.952Z,15.90
2017-03-14T15:41:35.541Z,16.00
2017-03-14T15:42:41.233Z,15.80
2017-03-14T15:43:46.301Z,15.80
2017-03-14T15:44:52.532Z,15.50
2017-03-14T15:45:58.293Z,15.60
2017-03-14T15:47:03.981Z,15.70
2017-03-14T15:48:08.764Z,15.60
2017-03-14T15:49:13.417Z,15.60
2017-03-14T15:50:18.882Z,15.50
2017-03-14T15:51:25.785Z,15.50
2017-03-14T15:52:31.321Z,15.60
2017-03-14T15:53:36.288Z,15.50
2017-03-14T15:54:41.733Z,15.40
2017-03-14T15:55:47.493Z,15.40
2017-03-14T15:56:52.408Z,15.40
2017-03-14T15:57:58.642Z,15.30
2017-03-14T15:59:04.176Z,15.30
2017-03-14T16:00:09.764Z,15.20
2017-03-14T16:01:14.585Z,15.20
2017-03-14T16:02:19.338Z,15.20